Latest Weather Observations for Merimbula

IDN60801

Issued at 6:33 pm EDT Saturday 20 December 2014 (issued every 30 minutes, with the page automatically refreshed every 10 minutes)

About weather observations | Map of weather stations | Latest weather observations for NSW | Other Formats
Station Details ID: 069147 Name: MERIMBULA AIRPORT AWS Lat: -36.91 Lon: 149.90 Height: 1.5 m
Data from the previous 72 hours. | See also: Recent months at Merimbula
Date/Time
EDT
Temp
°C
App
Temp
°C
Dew
Point
Rel
Hum
%
Delta-T
°C
Wind Press
QNH
hPa
Press
MSL
hPa
Rain
since 9 am
mm
Dir
 
Spd
km/h
Gust
km/h
Spd
kts
Gust
kts
20/06:30pm 19.6 17.9 11.1 58 4.6 E 11 17 6 9 1017.4 1017.4 0.0
20/05:30pm 20.2 18.3 11.9 59 4.6 ESE 13 19 7 10 1017.1 1017.1 0.0
20/05:00pm 20.1 17.8 11.6 58 4.7 ESE 15 22 8 12 1017.0 1017.0 0.0
20/04:30pm 20.3 18.3 11.5 57 4.9 ESE 13 20 7 11 1017.0 1017.0 0.0
20/04:00pm 20.5 18.0 9.7 50 5.8 E 13 17 7 9 1017.1 1017.1 0.0
20/03:30pm 20.7 18.2 9.6 49 5.9 E 13 22 7 12 1017.3 1017.3 0.0
20/03:00pm 20.3 17.8 9.8 51 5.6 ENE 13 20 7 11 1017.3 1017.3 0.0
20/02:30pm 20.7 18.0 10.5 52 5.5 ENE 15 20 8 11 1017.3 1017.3 0.0
20/02:00pm 20.3 17.0 9.5 50 5.7 ENE 17 24 9 13 1017.2 1017.2 0.0
20/01:30pm 20.6 17.8 10.1 51 5.7 E 15 24 8 13 1017.4 1017.4 0.0
20/01:00pm 20.2 17.4 10.0 52 5.5 E 15 22 8 12 1017.6 1017.6 0.0
20/12:30pm 21.1 18.8 10.6 51 5.7 E 13 20 7 11 1017.5 1017.5 0.0
20/12:00pm 19.9 17.0 9.8 52 5.4 E 15 20 8 11 1017.6 1017.6 0.0
20/11:30am 19.6 16.9 10.3 55 5.0 E 15 20 8 11 1017.6 1017.6 0.0
20/11:00am 19.2 16.5 10.5 57 4.7 E 15 20 8 11 1017.7 1017.7 0.0
20/10:30am 19.2 16.4 9.9 55 5.0 E 15 20 8 11 1017.6 1017.6 0.0
20/10:00am 19.0 16.2 10.0 56 4.8 E 15 22 8 12 1017.7 1017.7 0.0
20/09:30am 18.9 16.9 8.8 52 5.3 E 9 17 5 9 1017.7 1017.7 0.0
20/09:00am 18.6 17.1 8.6 52 5.2 ENE 6 11 3 6 1017.9 1017.9 0.0
20/08:30am 18.0 15.8 7.7 51 5.2 WNW 9 15 5 8 1018.0 1018.0 0.0
20/08:00am 16.8 14.7 8.2 57 4.4 W 9 15 5 8 1017.9 1017.9 0.0
20/07:30am 15.4 14.8 8.9 65 3.3 NW 2 9 1 5 1017.8 1017.8 0.0
20/07:00am 13.3 13.1 9.2 76 2.1 CALM 0 0 0 0 1017.7 1017.7 0.0
20/06:30am 10.6 9.5 8.5 87 1.0 SSW 4 7 2 4 1017.5 1017.5 0.0
20/05:30am 9.9 7.4 8.0 88 0.9 SSW 11 15 6 8 1017.3 1017.3 0.0
20/05:00am 9.8 8.1 8.2 90 0.8 S 7 9 4 5 1017.3 1017.3 0.0
20/04:30am 9.6 8.8 8.2 91 0.7 S 2 7 1 4 1017.2 1017.2 0.0
20/04:00am 9.4 8.8 7.5 88 0.9 CALM 0 6 0 3 1017.3 1017.3 0.0
20/03:30am 10.1 8.3 8.0 87 1.0 SW 7 9 4 5 1017.5 1017.5 0.0
20/03:00am 10.2 8.6 8.1 87 1.0 W 6 9 3 5 1017.6 1017.6 0.0
20/02:30am 11.0 9.4 8.8 86 1.1 SW 7 9 4 5 1017.9 1017.9 0.0
20/02:00am 11.3 11.0 8.7 84 1.3 CALM 0 0 0 0 1018.1 1018.1 0.0
20/01:30am 11.8 10.0 9.5 86 1.2 NNW 9 13 5 7 1018.4 1018.4 0.0
20/01:00am 11.0 10.5 8.0 82 1.5 CALM 0 0 0 0 1018.6 1018.6 0.0
20/12:30am 12.3 12.1 9.0 80 1.7 CALM 0 0 0 0 1018.8 1018.8 0.0
20/12:00am 12.3 11.8 7.8 74 2.2 CALM 0 0 0 0 1018.8 1018.8 0.0
 
Date/Time
EDT
Temp
°C
App
Temp
°C
Dew
Point
Rel
Hum
%
Delta-T
°C
Wind Press
QNH
hPa
Press
MSL
hPa
Rain
since 9 am
mm
Dir
 
Spd
km/h
Gust
km/h
Spd
kts
Gust
kts
19/11:30pm 13.2 11.9 7.6 69 2.7 SSE 4 7 2 4 1018.9 1018.9 0.0
19/11:00pm 14.2 12.5 7.7 65 3.2 SW 6 11 3 6 1018.9 1018.9 0.0
19/10:30pm 13.7 13.2 7.9 68 2.9 CALM 0 0 0 0 1018.8 1018.8 0.0
19/10:00pm 15.4 13.3 8.2 62 3.6 SSE 9 15 5 8 1018.6 1018.6 0.0
19/09:30pm 15.8 13.0 8.5 62 3.7 SE 13 19 7 10 1018.2 1018.2 0.0
19/09:00pm 16.1 12.9 8.6 61 3.8 SE 15 20 8 11 1017.9 1017.9 0.0
19/08:30pm 16.6 13.4 8.6 59 4.1 SSE 15 20 8 11 1017.5 1017.5 0.0
19/08:00pm 17.0 13.9 8.7 58 4.3 SSE 15 24 8 13 1016.8 1016.8 0.0
19/07:30pm 17.9 13.9 8.2 53 5.0 SSE 19 30 10 16 1016.0 1016.0 0.0
19/07:00pm 18.7 13.8 8.4 51 5.3 SSE 24 35 13 19 1015.5 1015.5 0.0
19/06:30pm 19.2 14.2 7.9 48 5.8 S 24 41 13 22 1014.8 1014.8 0.0
19/06:00pm 20.0 15.5 8.4 47 6.0 S 22 33 12 18 1014.4 1014.4 0.0
19/05:30pm 20.4 15.2 7.4 43 6.7 S 24 37 13 20 1014.0 1014.0 0.0
19/05:00pm 20.8 15.3 7.4 42 6.9 S 26 39 14 21 1013.6 1013.6 0.0
19/04:30pm 21.5 16.5 8.1 42 7.0 S 24 35 13 19 1013.7 1013.7 0.0
19/04:00pm 21.4 15.5 7.3 40 7.2 S 28 43 15 23 1013.6 1013.6 0.0
19/03:30pm 22.2 17.4 9.0 43 7.0 SSW 24 43 13 23 1013.5 1013.5 0.0
19/03:00pm 22.0 17.2 5.4 34 8.3 SSW 20 30 11 16 1013.4 1013.4 0.0
19/02:30pm 22.0 18.5 7.0 38 7.7 WSW 15 28 8 15 1013.3 1013.3 0.0
19/02:00pm 22.1 17.2 7.1 38 7.7 SW 22 33 12 18 1013.4 1013.4 0.0
19/01:30pm 21.0 16.2 5.4 36 7.7 SW 20 33 11 18 1013.4 1013.4 0.0
19/01:00pm 20.9 16.2 6.1 38 7.4 SSW 20 33 11 18 1013.3 1013.3 0.0
19/12:30pm 22.1 17.4 5.9 35 8.2 SW 20 30 11 16 1013.2 1013.2 0.0
19/12:00pm 21.3 16.0 5.2 35 7.9 SW 22 33 12 18 1013.3 1013.3 0.0
19/11:30am 21.0 16.2 5.8 37 7.6 SSW 20 33 11 18 1013.2 1013.2 0.0
19/11:00am 20.5 16.2 6.8 41 6.9 SSW 19 30 10 16 1013.1 1013.1 0.0
19/10:30am 19.7 15.0 6.1 41 6.8 SSW 20 35 11 19 1013.5 1013.5 0.0
19/10:00am 19.3 13.2 6.8 44 6.3 SSW 28 39 15 21 1013.4 1013.4 0.0
19/09:48am 19.0 12.7 5.5 41 6.6 SSW 28 48 15 26 1013.5 1013.5 0.0
19/09:30am 19.1 13.2 5.9 42 6.5 SSW 26 44 14 24 1013.6 1013.6 0.0
19/09:00am 18.3 13.7 5.8 44 6.1 SSW 19 30 10 16 1013.4 1013.4 0.0
19/08:30am 18.0 14.0 6.8 48 5.6 SW 17 28 9 15 1013.3 1013.3 0.0
19/08:00am 17.2 13.9 6.4 49 5.3 W 13 24 7 13 1013.2 1013.2 0.0
19/07:30am 16.3 13.6 5.6 49 5.1 WSW 9 19 5 10 1012.9 1012.9 0.0
19/07:00am 15.8 12.5 6.3 53 4.6 WNW 13 19 7 10 1012.5 1012.5 0.0
19/06:30am 15.1 11.0 6.1 55 4.3 WSW 17 35 9 19 1012.1 1012.1 0.0
19/06:00am 13.8 10.3 7.3 65 3.2 WSW 15 20 8 11 1011.8 1011.8 0.0
19/05:30am 13.0 10.6 7.2 68 2.8 WSW 9 15 5 8 1011.3 1011.3 0.0
19/05:00am 13.8 11.2 7.6 66 3.1 WSW 11 19 6 10 1010.8 1010.8 0.0
19/04:30am 14.2 11.5 7.3 63 3.4 SW 11 17 6 9 1010.2 1010.2 0.0
19/04:00am 14.7 11.9 6.8 59 3.8 SW 11 20 6 11 1010.0 1010.0 0.0
19/03:30am 15.1 11.5 6.9 58 4.0 SW 15 26 8 14 1009.6 1009.6 0.0
19/03:00am 15.0 12.0 7.5 61 3.7 SW 13 22 7 12 1009.5 1009.5 0.0
19/02:30am 15.5 11.8 8.0 61 3.8 SW 17 28 9 15 1009.4 1009.4 0.0
19/02:00am 15.3 13.4 9.2 67 3.1 SW 9 17 5 9 1009.2 1009.2 0.0
19/01:30am 15.2 13.4 9.3 68 3.0 SSW 9 20 5 11 1008.8 1008.8 0.0
19/01:00am 15.3 13.1 9.4 68 3.0 S 11 15 6 8 1009.1 1009.1 0.0
19/12:30am 15.7 12.0 10.0 69 3.0 SSW 20 33 11 18 1008.7 1008.7 0.0
19/12:00am 16.5 13.0 10.1 66 3.4 S 19 30 10 16 1008.8 1008.8 0.0
 
Date/Time
EDT
Temp
°C
App
Temp
°C
Dew
Point
Rel
Hum
%
Delta-T
°C
Wind Press
QNH
hPa
Press
MSL
hPa
Rain
since 9 am
mm
Dir
 
Spd
km/h
Gust
km/h
Spd
kts
Gust
kts
18/11:30pm 17.1 12.8 10.7 66 3.4 SW 24 41 13 22 1007.8 1007.8 0.0
18/11:00pm 17.5 13.5 10.4 63 3.8 SW 22 41 12 22 1007.4 1007.4 0.0
18/10:40pm 18.2 13.4 11.5 65 3.7 WSW 28 46 15 25 1007.7 1007.7 0.0
18/10:30pm 18.2 14.6 12.0 67 3.4 SW 22 37 12 20 1007.3 1007.3 0.0
18/10:00pm 18.8 14.2 12.3 66 3.6 SW 28 41 15 22 1007.1 1007.1 0.0
18/09:30pm 19.2 19.5 17.9 92 0.8 S 13 20 7 11 1006.5 1006.5 0.0
18/09:14pm 19.0 19.3 17.8 93 0.7 SW 13 22 7 12 1006.3 1006.3 0.0
18/09:00pm 18.0 19.7 16.3 90 1.0 ESE 2 9 1 5 1005.6 1005.6 0.0
18/08:36pm 18.4 19.3 16.6 89 1.1 ENE 7 9 4 5 1005.4 1005.4 0.0
18/08:30pm 18.5 19.4 16.7 89 1.1 E 7 13 4 7 1005.3 1005.3 0.0
18/08:00pm 19.1 19.8 17.1 88 1.2 ENE 9 13 5 7 1005.4 1005.4 0.0
18/07:30pm 19.6 19.9 17.0 85 1.6 E 11 15 6 8 1005.2 1005.2 0.0
18/07:00pm 20.9 20.9 17.3 80 2.2 E 13 20 7 11 1004.8 1004.8 0.0
18/06:30pm 21.3 21.1 17.5 79 2.3 NE 15 24 8 13 1004.8 1004.8 0.0
18/06:00pm 21.6 20.6 17.6 78 2.5 NE 19 28 10 15 1004.4 1004.4 0.0
18/05:30pm 20.8 19.7 17.4 81 2.1 NE 19 28 10 15 1004.3 1004.3 0.0
18/05:00pm 20.7 19.3 16.9 79 2.3 NE 20 30 11 16 1004.2 1004.2 0.0
18/04:30pm 21.9 20.7 17.1 74 2.9 NE 19 32 10 17 1004.1 1004.1 0.0
18/04:00pm 22.5 20.7 17.0 71 3.4 NE 22 37 12 20 1004.1 1004.1 0.0
18/03:30pm 22.3 20.1 16.8 71 3.4 NE 24 35 13 19 1004.1 1004.1 0.0
18/03:00pm 21.9 19.1 16.4 71 3.3 NE 26 41 14 22 1004.1 1004.1 0.0
18/02:30pm 22.7 20.3 16.3 67 3.9 NE 24 35 13 19 1004.5 1004.5 0.0
18/02:00pm 22.6 20.4 15.9 66 4.0 NE 22 35 12 19 1004.7 1004.7 0.0
18/01:30pm 22.9 20.5 15.5 63 4.4 NE 22 33 12 18 1005.0 1005.0 0.0
18/01:00pm 22.2 19.2 14.8 63 4.4 NE 24 39 13 21 1005.6 1005.6 0.0
18/12:30pm 22.5 19.9 14.9 62 4.5 NE 22 39 12 21 1006.1 1006.1 0.0
18/12:00pm 22.5 20.4 15.1 63 4.4 NE 20 39 11 21 1006.7 1006.7 0.0
18/11:30am 21.6 19.2 14.5 64 4.2 NE 20 35 11 19 1007.0 1007.0 0.0
18/11:00am 21.0 18.6 14.4 66 3.9 NE 20 35 11 19 1007.4 1007.4 0.0
18/10:30am 21.2 19.0 14.4 65 4.0 NE 19 28 10 15 1007.6 1007.6 0.0
18/10:00am 20.5 18.1 13.7 65 3.9 NE 19 28 10 15 1008.2 1008.2 0.0
18/09:30am 19.4 18.0 13.3 68 3.5 NE 13 17 7 9 1008.5 1008.5 0.0
18/09:00am 19.4 18.1 13.6 69 3.3 ENE 13 19 7 10 1008.9 1008.9 0.0
18/08:30am 18.7 17.8 12.7 68 3.4 NNE 9 15 5 8 1009.2 1009.2 0.0
18/08:00am 17.8 18.1 12.3 70 3.0 NE 2 9 1 5 1009.0 1009.0 0.0
18/07:30am 16.9 17.5 12.0 73 2.7 CALM 0 0 0 0 1009.0 1009.0 0.0
18/07:00am 15.9 16.5 11.9 77 2.2 CALM 0 0 0 0 1008.9 1008.9 0.0
18/06:30am 15.4 15.1 11.4 77 2.1 N 4 9 2 5 1008.9 1008.9 0.0
18/06:00am 15.2 13.8 11.0 76 2.2 N 9 15 5 8 1009.1 1009.1 0.0
18/05:30am 15.5 13.8 11.1 75 2.3 N 11 17 6 9 1009.1 1009.1 0.0
18/05:00am 15.3 14.1 11.5 78 2.0 N 9 15 5 8 1009.2 1009.2 0.0
18/04:30am 15.3 15.8 11.7 79 1.9 CALM 0 0 0 0 1008.9 1008.9 0.0
18/04:00am 15.2 15.7 11.6 79 1.9 CALM 0 0 0 0 1009.0 1009.0 0.0
18/03:30am 15.0 15.4 11.4 79 1.9 CALM 0 0 0 0 1009.2 1009.2 0.0
18/03:00am 15.2 15.8 11.8 80 1.8 CALM 0 0 0 0 1009.6 1009.6 0.0
18/02:30am 15.7 16.0 10.9 73 2.6 CALM 0 0 0 0 1009.8 1009.8 0.0
18/02:00am 15.8 16.1 10.8 72 2.7 CALM 0 0 0 0 1010.0 1010.0 0.0
18/01:30am 15.9 16.1 10.7 71 2.8 CALM 0 0 0 0 1010.3 1010.3 0.0
18/01:00am 16.0 14.7 10.1 68 3.1 N 7 11 4 6 1010.6 1010.6 0.0
18/12:30am 16.2 14.8 9.6 65 3.4 NNE 7 11 4 6 1011.0 1011.0 0.0
18/12:00am 16.2 14.2 10.1 67 3.2 NW 11 17 6 9 1011.4 1011.4 0.0
 
Date/Time
EDT
Temp
°C
App
Temp
°C
Dew
Point
Rel
Hum
%
Delta-T
°C
Wind Press
QNH
hPa
Press
MSL
hPa
Rain
since 9 am
mm
Dir
 
Spd
km/h
Gust
km/h
Spd
kts
Gust
kts
17/11:30pm 16.0 16.1 10.1 68 3.1 CALM 0 0 0 0 1011.6 1011.6 0.0
17/11:00pm 15.5 15.3 9.2 66 3.2 CALM 0 0 0 0 1011.7 1011.7 0.0
17/10:30pm 16.0 16.0 9.9 67 3.2 CALM 0 0 0 0 1011.6 1011.6 0.0
17/10:00pm 16.0 15.8 9.2 64 3.5 CALM 0 0 0 0 1011.4 1011.4 0.0
17/09:30pm 16.1 14.9 9.5 65 3.4 S 6 7 3 4 1011.3 1011.3 0.0
17/09:00pm 16.3 14.9 9.5 64 3.5 SSE 7 9 4 5 1011.1 1011.1 0.0
17/08:30pm 16.3 14.9 9.5 64 3.5 SE 7 13 4 7 1010.8 1010.8 0.0
17/08:00pm 16.5 14.8 9.9 65 3.5 SE 9 15 5 8 1010.6 1010.6 0.0
17/07:30pm 16.5 13.5 9.4 63 3.7 SE 15 24 8 13 1009.9 1009.9 0.0
17/07:00pm 16.6 13.1 10.2 66 3.4 SE 19 28 10 15 1009.4 1009.4 0.0

Other Formats:

Comma delimited format used in spreadsheet applications
http://www.bom.gov.au/fwo/IDN60801/IDN60801.95929.axf

JavaScript Object Notation format (JSON) in row-major order
http://www.bom.gov.au/fwo/IDN60801/IDN60801.95929.json